sensor_id;sensor_type;location;lat;lon;timestamp;P1;durP1;ratioP1;P2;durP2;ratioP2
14992;SDS011;7592;51.088;13.732;2023-10-31T00:03:43;6.90;;;5.00;;
14992;SDS011;7592;51.088;13.732;2023-10-31T00:08:36;8.77;;;4.93;;
14992;SDS011;7592;51.088;13.732;2023-10-31T00:13:28;9.57;;;6.27;;
14992;SDS011;7592;51.088;13.732;2023-10-31T00:18:20;23.13;;;18.63;;
14992;SDS011;7592;51.088;13.732;2023-10-31T00:23:13;6.83;;;4.67;;
14992;SDS011;7592;51.088;13.732;2023-10-31T00:28:06;6.23;;;5.40;;
14992;SDS011;7592;51.088;13.732;2023-10-31T00:32:59;5.80;;;4.70;;
14992;SDS011;7592;51.088;13.732;2023-10-31T00:37:51;6.40;;;5.30;;
14992;SDS011;7592;51.088;13.732;2023-10-31T00:42:43;5.87;;;4.97;;
14992;SDS011;7592;51.088;13.732;2023-10-31T00:47:38;7.53;;;5.83;;
14992;SDS011;7592;51.088;13.732;2023-10-31T00:52:30;9.63;;;5.47;;
14992;SDS011;7592;51.088;13.732;2023-10-31T00:57:22;7.20;;;6.50;;
14992;SDS011;7592;51.088;13.732;2023-10-31T01:02:14;10.77;;;8.23;;
14992;SDS011;7592;51.088;13.732;2023-10-31T01:07:07;9.77;;;7.57;;
14992;SDS011;7592;51.088;13.732;2023-10-31T01:12:03;6.87;;;5.87;;
14992;SDS011;7592;51.088;13.732;2023-10-31T01:17:04;13.07;;;7.57;;
14992;SDS011;7592;51.088;13.732;2023-10-31T01:21:58;9.30;;;5.97;;
14992;SDS011;7592;51.088;13.732;2023-10-31T01:26:50;6.37;;;5.17;;
14992;SDS011;7592;51.088;13.732;2023-10-31T01:31:42;7.50;;;6.23;;
14992;SDS011;7592;51.088;13.732;2023-10-31T01:36:50;6.20;;;5.27;;
14992;SDS011;7592;51.088;13.732;2023-10-31T01:41:42;8.10;;;6.50;;
14992;SDS011;7592;51.088;13.732;2023-10-31T01:46:35;6.83;;;6.13;;
14992;SDS011;7592;51.088;13.732;2023-10-31T01:51:27;7.17;;;6.57;;
14992;SDS011;7592;51.088;13.732;2023-10-31T01:56:20;7.37;;;6.63;;
14992;SDS011;7592;51.088;13.732;2023-10-31T02:01:12;7.97;;;7.27;;
14992;SDS011;7592;51.088;13.732;2023-10-31T02:06:04;8.07;;;7.23;;
14992;SDS011;7592;51.088;13.732;2023-10-31T02:10:57;7.40;;;6.77;;
14992;SDS011;7592;51.088;13.732;2023-10-31T02:15:50;7.73;;;7.03;;
14992;SDS011;7592;51.088;13.732;2023-10-31T02:20:42;7.70;;;6.47;;
14992;SDS011;7592;51.088;13.732;2023-10-31T02:25:35;7.83;;;6.70;;
14992;SDS011;7592;51.088;13.732;2023-10-31T02:30:27;7.87;;;6.07;;
14992;SDS011;7592;51.088;13.732;2023-10-31T02:35:20;7.67;;;6.97;;
14992;SDS011;7592;51.088;13.732;2023-10-31T02:40:12;11.03;;;7.30;;
14992;SDS011;7592;51.088;13.732;2023-10-31T02:45:05;10.33;;;7.73;;
14992;SDS011;7592;51.088;13.732;2023-10-31T02:49:58;10.47;;;9.37;;
14992;SDS011;7592;51.088;13.732;2023-10-31T02:54:50;13.50;;;11.70;;
14992;SDS011;7592;51.088;13.732;2023-10-31T02:59:42;14.33;;;12.83;;
14992;SDS011;7592;51.088;13.732;2023-10-31T03:04:34;14.07;;;12.57;;
14992;SDS011;7592;51.088;13.732;2023-10-31T03:09:26;17.00;;;15.37;;
14992;SDS011;7592;51.088;13.732;2023-10-31T03:14:18;16.87;;;15.37;;
14992;SDS011;7592;51.088;13.732;2023-10-31T03:19:11;17.40;;;15.90;;
14992;SDS011;7592;51.088;13.732;2023-10-31T03:24:03;18.63;;;16.93;;
14992;SDS011;7592;51.088;13.732;2023-10-31T03:28:55;18.30;;;16.70;;
14992;SDS011;7592;51.088;13.732;2023-10-31T03:33:50;22.30;;;20.03;;
14992;SDS011;7592;51.088;13.732;2023-10-31T03:38:43;20.63;;;18.63;;
14992;SDS011;7592;51.088;13.732;2023-10-31T03:43:35;20.13;;;18.23;;
14992;SDS011;7592;51.088;13.732;2023-10-31T03:48:28;18.47;;;16.67;;
14992;SDS011;7592;51.088;13.732;2023-10-31T03:53:20;18.63;;;16.77;;
14992;SDS011;7592;51.088;13.732;2023-10-31T03:58:12;18.87;;;16.97;;
14992;SDS011;7592;51.088;13.732;2023-10-31T04:03:04;18.07;;;16.40;;
14992;SDS011;7592;51.088;13.732;2023-10-31T04:07:56;15.60;;;14.20;;
14992;SDS011;7592;51.088;13.732;2023-10-31T04:12:49;12.83;;;11.73;;
14992;SDS011;7592;51.088;13.732;2023-10-31T04:17:41;10.90;;;9.80;;
14992;SDS011;7592;51.088;13.732;2023-10-31T04:22:33;10.30;;;9.40;;
14992;SDS011;7592;51.088;13.732;2023-10-31T04:27:25;8.87;;;8.03;;
14992;SDS011;7592;51.088;13.732;2023-10-31T04:32:17;7.60;;;6.90;;
14992;SDS011;7592;51.088;13.732;2023-10-31T04:37:10;7.33;;;6.70;;
14992;SDS011;7592;51.088;13.732;2023-10-31T04:42:02;5.27;;;4.87;;
14992;SDS011;7592;51.088;13.732;2023-10-31T04:46:54;4.80;;;4.40;;
14992;SDS011;7592;51.088;13.732;2023-10-31T04:51:47;3.63;;;3.20;;
14992;SDS011;7592;51.088;13.732;2023-10-31T04:56:39;3.93;;;3.60;;
14992;SDS011;7592;51.088;13.732;2023-10-31T05:01:32;3.30;;;3.00;;
14992;SDS011;7592;51.088;13.732;2023-10-31T05:06:24;2.70;;;2.50;;
14992;SDS011;7592;51.088;13.732;2023-10-31T05:11:16;2.80;;;2.60;;
14992;SDS011;7592;51.088;13.732;2023-10-31T05:16:12;2.87;;;2.67;;
14992;SDS011;7592;51.088;13.732;2023-10-31T05:21:04;2.93;;;2.67;;
14992;SDS011;7592;51.088;13.732;2023-10-31T05:25:57;2.63;;;2.53;;
14992;SDS011;7592;51.088;13.732;2023-10-31T05:30:49;2.70;;;2.50;;
14992;SDS011;7592;51.088;13.732;2023-10-31T05:35:41;2.20;;;2.00;;
14992;SDS011;7592;51.088;13.732;2023-10-31T05:40:33;2.70;;;2.50;;
14992;SDS011;7592;51.088;13.732;2023-10-31T05:45:29;1.27;;;1.23;;
14992;SDS011;7592;51.088;13.732;2023-10-31T05:50:21;1.80;;;1.70;;
14992;SDS011;7592;51.088;13.732;2023-10-31T05:55:14;1.93;;;1.43;;
14992;SDS011;7592;51.088;13.732;2023-10-31T06:00:06;1.33;;;1.27;;
14992;SDS011;7592;51.088;13.732;2023-10-31T06:05:02;2.10;;;1.70;;
14992;SDS011;7592;51.088;13.732;2023-10-31T06:09:55;1.73;;;0.80;;
14992;SDS011;7592;51.088;13.732;2023-10-31T06:14:48;1.57;;;0.60;;
14992;SDS011;7592;51.088;13.732;2023-10-31T06:19:40;1.13;;;1.03;;
14992;SDS011;7592;51.088;13.732;2023-10-31T06:24:37;1.50;;;0.90;;
14992;SDS011;7592;51.088;13.732;2023-10-31T06:29:29;4.80;;;0.60;;
14992;SDS011;7592;51.088;13.732;2023-10-31T06:34:41;0.80;;;0.80;;
14992;SDS011;7592;51.088;13.732;2023-10-31T06:39:33;0.57;;;0.47;;
14992;SDS011;7592;51.088;13.732;2023-10-31T06:44:26;0.63;;;0.63;;
14992;SDS011;7592;51.088;13.732;2023-10-31T06:49:20;1.20;;;0.60;;
14992;SDS011;7592;51.088;13.732;2023-10-31T06:54:14;0.60;;;0.50;;
14992;SDS011;7592;51.088;13.732;2023-10-31T06:59:06;0.50;;;0.43;;
14992;SDS011;7592;51.088;13.732;2023-10-31T07:04:00;0.40;;;0.40;;
14992;SDS011;7592;51.088;13.732;2023-10-31T07:08:52;0.70;;;0.70;;
14992;SDS011;7592;51.088;13.732;2023-10-31T07:13:44;1.03;;;0.50;;
14992;SDS011;7592;51.088;13.732;2023-10-31T07:18:37;1.80;;;0.60;;
14992;SDS011;7592;51.088;13.732;2023-10-31T07:23:29;0.60;;;0.60;;
14992;SDS011;7592;51.088;13.732;2023-10-31T07:28:21;1.50;;;0.30;;
14992;SDS011;7592;51.088;13.732;2023-10-31T07:33:14;1.07;;;0.97;;
14992;SDS011;7592;51.088;13.732;2023-10-31T07:38:06;1.53;;;0.77;;
14992;SDS011;7592;51.088;13.732;2023-10-31T07:42:59;1.17;;;0.40;;
14992;SDS011;7592;51.088;13.732;2023-10-31T07:47:51;0.53;;;0.53;;
14992;SDS011;7592;51.088;13.732;2023-10-31T07:52:43;0.47;;;0.30;;
14992;SDS011;7592;51.088;13.732;2023-10-31T07:57:37;0.93;;;0.73;;
14992;SDS011;7592;51.088;13.732;2023-10-31T08:02:30;0.40;;;0.40;;
14992;SDS011;7592;51.088;13.732;2023-10-31T08:07:25;0.70;;;0.33;;
14992;SDS011;7592;51.088;13.732;2023-10-31T08:12:22;1.40;;;0.30;;
14992;SDS011;7592;51.088;13.732;2023-10-31T08:17:15;0.27;;;0.20;;
14992;SDS011;7592;51.088;13.732;2023-10-31T08:22:08;2.10;;;0.30;;
14992;SDS011;7592;51.088;13.732;2023-10-31T08:27:00;1.13;;;0.80;;
14992;SDS011;7592;51.088;13.732;2023-10-31T08:31:52;2.00;;;1.07;;
14992;SDS011;7592;51.088;13.732;2023-10-31T08:36:44;0.40;;;0.30;;
14992;SDS011;7592;51.088;13.732;2023-10-31T08:41:37;0.20;;;0.20;;
14992;SDS011;7592;51.088;13.732;2023-10-31T08:46:30;0.20;;;0.20;;
14992;SDS011;7592;51.088;13.732;2023-10-31T08:51:23;0.83;;;0.20;;
14992;SDS011;7592;51.088;13.732;2023-10-31T08:56:15;1.30;;;0.20;;
14992;SDS011;7592;51.088;13.732;2023-10-31T09:01:07;1.03;;;0.20;;
14992;SDS011;7592;51.088;13.732;2023-10-31T09:05:59;0.90;;;0.20;;
14992;SDS011;7592;51.088;13.732;2023-10-31T09:10:51;1.50;;;0.30;;
14992;SDS011;7592;51.088;13.732;2023-10-31T09:15:44;0.73;;;0.30;;
14992;SDS011;7592;51.088;13.732;2023-10-31T09:20:37;0.30;;;0.20;;
14992;SDS011;7592;51.088;13.732;2023-10-31T09:25:29;0.73;;;0.20;;
14992;SDS011;7592;51.088;13.732;2023-10-31T09:30:22;0.20;;;0.20;;
14992;SDS011;7592;51.088;13.732;2023-10-31T09:35:14;1.43;;;0.30;;
14992;SDS011;7592;51.088;13.732;2023-10-31T09:40:06;0.43;;;0.43;;
14992;SDS011;7592;51.088;13.732;2023-10-31T09:44:59;0.20;;;0.20;;
14992;SDS011;7592;51.088;13.732;2023-10-31T09:49:51;0.50;;;0.20;;
14992;SDS011;7592;51.088;13.732;2023-10-31T09:54:44;0.97;;;0.30;;
14992;SDS011;7592;51.088;13.732;2023-10-31T09:59:37;0.33;;;0.30;;
14992;SDS011;7592;51.088;13.732;2023-10-31T10:04:29;0.17;;;0.10;;
14992;SDS011;7592;51.088;13.732;2023-10-31T10:09:22;0.17;;;0.10;;
14992;SDS011;7592;51.088;13.732;2023-10-31T10:14:14;0.20;;;0.20;;
14992;SDS011;7592;51.088;13.732;2023-10-31T10:19:15;0.30;;;0.30;;
14992;SDS011;7592;51.088;13.732;2023-10-31T10:24:08;0.10;;;0.10;;
14992;SDS011;7592;51.088;13.732;2023-10-31T10:29:00;0.13;;;0.10;;
14992;SDS011;7592;51.088;13.732;2023-10-31T10:33:53;2.07;;;1.90;;
14992;SDS011;7592;51.088;13.732;2023-10-31T10:38:46;1.03;;;1.03;;
14992;SDS011;7592;51.088;13.732;2023-10-31T10:43:41;0.53;;;0.30;;
14992;SDS011;7592;51.088;13.732;2023-10-31T10:48:34;0.40;;;0.40;;
14992;SDS011;7592;51.088;13.732;2023-10-31T10:53:30;0.40;;;0.20;;
14992;SDS011;7592;51.088;13.732;2023-10-31T10:58:34;0.20;;;0.20;;
14992;SDS011;7592;51.088;13.732;2023-10-31T11:03:32;1.40;;;0.20;;
14992;SDS011;7592;51.088;13.732;2023-10-31T11:08:26;0.20;;;0.20;;
14992;SDS011;7592;51.088;13.732;2023-10-31T11:13:20;0.10;;;0.10;;
14992;SDS011;7592;51.088;13.732;2023-10-31T11:18:12;0.20;;;0.20;;
14992;SDS011;7592;51.088;13.732;2023-10-31T11:23:05;0.20;;;0.20;;
14992;SDS011;7592;51.088;13.732;2023-10-31T11:28:14;0.93;;;0.20;;
14992;SDS011;7592;51.088;13.732;2023-10-31T11:33:11;0.37;;;0.20;;
14992;SDS011;7592;51.088;13.732;2023-10-31T11:38:08;1.50;;;0.10;;
14992;SDS011;7592;51.088;13.732;2023-10-31T11:43:04;3.53;;;0.20;;
14992;SDS011;7592;51.088;13.732;2023-10-31T11:47:57;0.60;;;0.10;;
14992;SDS011;7592;51.088;13.732;2023-10-31T12:03:09;3.23;;;2.63;;
14992;SDS011;7592;51.088;13.732;2023-10-31T12:08:01;0.87;;;0.40;;
14992;SDS011;7592;51.088;13.732;2023-10-31T12:12:54;0.53;;;0.40;;
14992;SDS011;7592;51.088;13.732;2023-10-31T12:17:46;1.00;;;0.20;;
14992;SDS011;7592;51.088;13.732;2023-10-31T12:22:38;0.90;;;0.37;;
14992;SDS011;7592;51.088;13.732;2023-10-31T12:27:41;0.27;;;0.27;;
14992;SDS011;7592;51.088;13.732;2023-10-31T12:32:43;1.33;;;0.30;;
14992;SDS011;7592;51.088;13.732;2023-10-31T12:37:36;0.33;;;0.30;;
14992;SDS011;7592;51.088;13.732;2023-10-31T12:42:30;0.20;;;0.20;;
14992;SDS011;7592;51.088;13.732;2023-10-31T12:47:24;0.47;;;0.30;;
14992;SDS011;7592;51.088;13.732;2023-10-31T12:52:16;0.60;;;0.40;;
14992;SDS011;7592;51.088;13.732;2023-10-31T12:57:09;0.47;;;0.30;;
14992;SDS011;7592;51.088;13.732;2023-10-31T13:02:03;1.90;;;0.60;;
14992;SDS011;7592;51.088;13.732;2023-10-31T13:06:58;1.17;;;0.40;;
14992;SDS011;7592;51.088;13.732;2023-10-31T13:11:51;0.30;;;0.10;;
14992;SDS011;7592;51.088;13.732;2023-10-31T13:16:43;0.40;;;0.40;;
14992;SDS011;7592;51.088;13.732;2023-10-31T13:21:35;0.83;;;0.50;;
14992;SDS011;7592;51.088;13.732;2023-10-31T13:26:27;3.40;;;1.77;;
14992;SDS011;7592;51.088;13.732;2023-10-31T13:31:20;4.13;;;1.83;;
14992;SDS011;7592;51.088;13.732;2023-10-31T13:36:12;1.10;;;0.97;;
14992;SDS011;7592;51.088;13.732;2023-10-31T13:41:04;0.30;;;0.30;;
14992;SDS011;7592;51.088;13.732;2023-10-31T13:45:56;2.50;;;1.37;;
14992;SDS011;7592;51.088;13.732;2023-10-31T13:50:48;2.87;;;1.10;;
14992;SDS011;7592;51.088;13.732;2023-10-31T13:55:42;2.17;;;1.30;;
14992;SDS011;7592;51.088;13.732;2023-10-31T14:00:34;0.30;;;0.30;;
14992;SDS011;7592;51.088;13.732;2023-10-31T14:05:26;0.27;;;0.27;;
14992;SDS011;7592;51.088;13.732;2023-10-31T14:10:19;1.30;;;1.20;;
14992;SDS011;7592;51.088;13.732;2023-10-31T14:15:11;1.87;;;0.70;;
14992;SDS011;7592;51.088;13.732;2023-10-31T14:20:04;0.40;;;0.40;;
14992;SDS011;7592;51.088;13.732;2023-10-31T14:24:56;0.50;;;0.50;;
14992;SDS011;7592;51.088;13.732;2023-10-31T14:29:48;0.70;;;0.60;;
14992;SDS011;7592;51.088;13.732;2023-10-31T14:34:41;1.67;;;1.00;;
14992;SDS011;7592;51.088;13.732;2023-10-31T14:39:33;1.60;;;0.70;;
14992;SDS011;7592;51.088;13.732;2023-10-31T14:44:25;0.57;;;0.50;;
14992;SDS011;7592;51.088;13.732;2023-10-31T14:49:18;1.17;;;0.60;;
14992;SDS011;7592;51.088;13.732;2023-10-31T14:54:10;2.30;;;0.50;;
14992;SDS011;7592;51.088;13.732;2023-10-31T14:59:02;0.60;;;0.60;;
14992;SDS011;7592;51.088;13.732;2023-10-31T15:03:54;1.37;;;0.67;;
14992;SDS011;7592;51.088;13.732;2023-10-31T15:08:48;2.67;;;0.80;;
14992;SDS011;7592;51.088;13.732;2023-10-31T15:13:40;0.70;;;0.60;;
14992;SDS011;7592;51.088;13.732;2023-10-31T15:18:32;0.53;;;0.53;;
14992;SDS011;7592;51.088;13.732;2023-10-31T15:23:24;0.60;;;0.60;;
14992;SDS011;7592;51.088;13.732;2023-10-31T15:28:18;1.33;;;0.90;;
14992;SDS011;7592;51.088;13.732;2023-10-31T15:33:10;0.70;;;0.70;;
14992;SDS011;7592;51.088;13.732;2023-10-31T15:38:02;2.10;;;0.47;;
14992;SDS011;7592;51.088;13.732;2023-10-31T15:42:55;2.60;;;1.63;;
14992;SDS011;7592;51.088;13.732;2023-10-31T15:47:47;1.10;;;1.00;;
14992;SDS011;7592;51.088;13.732;2023-10-31T15:52:39;0.80;;;0.60;;
14992;SDS011;7592;51.088;13.732;2023-10-31T15:57:31;1.53;;;0.60;;
14992;SDS011;7592;51.088;13.732;2023-10-31T16:02:24;1.00;;;0.70;;
14992;SDS011;7592;51.088;13.732;2023-10-31T16:07:16;0.90;;;0.80;;
14992;SDS011;7592;51.088;13.732;2023-10-31T16:12:08;2.30;;;1.03;;
14992;SDS011;7592;51.088;13.732;2023-10-31T16:17:00;0.50;;;0.50;;
14992;SDS011;7592;51.088;13.732;2023-10-31T16:21:53;1.17;;;0.70;;
14992;SDS011;7592;51.088;13.732;2023-10-31T16:26:45;0.53;;;0.53;;
14992;SDS011;7592;51.088;13.732;2023-10-31T16:31:37;0.90;;;0.90;;
14992;SDS011;7592;51.088;13.732;2023-10-31T16:36:29;0.73;;;0.70;;
14992;SDS011;7592;51.088;13.732;2023-10-31T16:41:21;0.90;;;0.80;;
14992;SDS011;7592;51.088;13.732;2023-10-31T16:46:13;1.83;;;0.97;;
14992;SDS011;7592;51.088;13.732;2023-10-31T16:51:11;2.20;;;1.43;;
14992;SDS011;7592;51.088;13.732;2023-10-31T16:56:09;1.07;;;0.90;;
14992;SDS011;7592;51.088;13.732;2023-10-31T17:01:01;1.87;;;0.63;;
14992;SDS011;7592;51.088;13.732;2023-10-31T17:05:53;0.70;;;0.70;;
14992;SDS011;7592;51.088;13.732;2023-10-31T17:10:45;0.50;;;0.50;;
14992;SDS011;7592;51.088;13.732;2023-10-31T17:15:37;0.60;;;0.60;;
14992;SDS011;7592;51.088;13.732;2023-10-31T17:20:30;0.50;;;0.50;;
14992;SDS011;7592;51.088;13.732;2023-10-31T17:25:22;1.80;;;0.70;;
14992;SDS011;7592;51.088;13.732;2023-10-31T17:30:14;1.10;;;0.70;;
14992;SDS011;7592;51.088;13.732;2023-10-31T17:35:07;1.23;;;0.50;;
14992;SDS011;7592;51.088;13.732;2023-10-31T17:39:59;0.70;;;0.70;;
14992;SDS011;7592;51.088;13.732;2023-10-31T17:44:52;0.70;;;0.70;;
14992;SDS011;7592;51.088;13.732;2023-10-31T17:49:44;1.03;;;0.80;;
14992;SDS011;7592;51.088;13.732;2023-10-31T17:54:37;2.33;;;1.30;;
14992;SDS011;7592;51.088;13.732;2023-10-31T17:59:33;1.93;;;1.07;;
14992;SDS011;7592;51.088;13.732;2023-10-31T18:04:25;1.10;;;1.10;;
14992;SDS011;7592;51.088;13.732;2023-10-31T18:09:18;3.20;;;1.20;;
14992;SDS011;7592;51.088;13.732;2023-10-31T18:14:10;1.27;;;0.87;;
14992;SDS011;7592;51.088;13.732;2023-10-31T18:19:02;1.43;;;1.33;;
14992;SDS011;7592;51.088;13.732;2023-10-31T18:23:55;0.77;;;0.77;;
14992;SDS011;7592;51.088;13.732;2023-10-31T18:28:47;2.10;;;0.93;;
14992;SDS011;7592;51.088;13.732;2023-10-31T18:33:42;1.97;;;0.90;;
14992;SDS011;7592;51.088;13.732;2023-10-31T18:38:34;1.47;;;1.37;;
14992;SDS011;7592;51.088;13.732;2023-10-31T18:43:26;0.80;;;0.70;;
14992;SDS011;7592;51.088;13.732;2023-10-31T18:48:18;1.50;;;1.00;;
14992;SDS011;7592;51.088;13.732;2023-10-31T18:53:10;2.27;;;0.90;;
14992;SDS011;7592;51.088;13.732;2023-10-31T18:58:03;1.40;;;1.20;;
14992;SDS011;7592;51.088;13.732;2023-10-31T19:02:55;1.17;;;1.07;;
14992;SDS011;7592;51.088;13.732;2023-10-31T19:07:48;1.33;;;1.03;;
14992;SDS011;7592;51.088;13.732;2023-10-31T19:12:40;1.27;;;1.17;;
14992;SDS011;7592;51.088;13.732;2023-10-31T19:17:33;4.07;;;2.03;;
14992;SDS011;7592;51.088;13.732;2023-10-31T19:22:25;1.83;;;1.27;;
14992;SDS011;7592;51.088;13.732;2023-10-31T19:27:17;1.50;;;1.00;;
14992;SDS011;7592;51.088;13.732;2023-10-31T19:32:10;1.10;;;1.00;;
14992;SDS011;7592;51.088;13.732;2023-10-31T19:37:02;2.07;;;1.27;;
14992;SDS011;7592;51.088;13.732;2023-10-31T19:41:54;1.90;;;1.20;;
14992;SDS011;7592;51.088;13.732;2023-10-31T19:46:49;1.20;;;0.80;;
14992;SDS011;7592;51.088;13.732;2023-10-31T19:51:41;0.80;;;0.80;;
14992;SDS011;7592;51.088;13.732;2023-10-31T19:56:36;2.90;;;2.00;;
14992;SDS011;7592;51.088;13.732;2023-10-31T20:01:28;0.77;;;0.60;;
14992;SDS011;7592;51.088;13.732;2023-10-31T20:06:21;3.10;;;1.00;;
14992;SDS011;7592;51.088;13.732;2023-10-31T20:11:13;3.47;;;1.20;;
14992;SDS011;7592;51.088;13.732;2023-10-31T20:16:06;1.03;;;0.93;;
14992;SDS011;7592;51.088;13.732;2023-10-31T20:20:59;2.33;;;0.80;;
14992;SDS011;7592;51.088;13.732;2023-10-31T20:25:52;1.50;;;1.10;;
14992;SDS011;7592;51.088;13.732;2023-10-31T20:30:44;1.03;;;0.57;;
14992;SDS011;7592;51.088;13.732;2023-10-31T20:35:36;1.33;;;0.70;;
14992;SDS011;7592;51.088;13.732;2023-10-31T20:40:28;2.37;;;0.90;;
14992;SDS011;7592;51.088;13.732;2023-10-31T20:45:23;3.00;;;1.00;;
14992;SDS011;7592;51.088;13.732;2023-10-31T20:50:15;2.20;;;0.70;;
14992;SDS011;7592;51.088;13.732;2023-10-31T20:55:08;1.63;;;0.80;;
14992;SDS011;7592;51.088;13.732;2023-10-31T21:00:00;1.40;;;1.00;;
14992;SDS011;7592;51.088;13.732;2023-10-31T21:04:54;3.00;;;1.67;;
14992;SDS011;7592;51.088;13.732;2023-10-31T21:09:46;1.23;;;0.93;;
14992;SDS011;7592;51.088;13.732;2023-10-31T21:14:39;5.17;;;1.60;;
14992;SDS011;7592;51.088;13.732;2023-10-31T21:19:32;0.63;;;0.63;;
14992;SDS011;7592;51.088;13.732;2023-10-31T21:24:27;1.43;;;1.00;;
14992;SDS011;7592;51.088;13.732;2023-10-31T21:29:19;1.50;;;0.80;;
14992;SDS011;7592;51.088;13.732;2023-10-31T21:34:11;0.93;;;0.57;;
14992;SDS011;7592;51.088;13.732;2023-10-31T21:39:06;12.20;;;7.27;;
14992;SDS011;7592;51.088;13.732;2023-10-31T21:43:58;1.37;;;1.00;;
14992;SDS011;7592;51.088;13.732;2023-10-31T21:48:51;2.60;;;0.80;;
14992;SDS011;7592;51.088;13.732;2023-10-31T21:53:43;2.47;;;0.77;;
14992;SDS011;7592;51.088;13.732;2023-10-31T21:58:35;1.20;;;0.63;;
14992;SDS011;7592;51.088;13.732;2023-10-31T22:03:27;1.13;;;0.67;;
14992;SDS011;7592;51.088;13.732;2023-10-31T22:08:20;1.63;;;0.60;;
14992;SDS011;7592;51.088;13.732;2023-10-31T22:13:12;1.57;;;0.80;;
14992;SDS011;7592;51.088;13.732;2023-10-31T22:18:04;2.43;;;1.50;;
14992;SDS011;7592;51.088;13.732;2023-10-31T22:22:57;0.83;;;0.60;;
14992;SDS011;7592;51.088;13.732;2023-10-31T22:27:49;0.83;;;0.70;;
14992;SDS011;7592;51.088;13.732;2023-10-31T22:32:41;1.80;;;0.80;;
14992;SDS011;7592;51.088;13.732;2023-10-31T22:37:34;1.33;;;0.70;;
14992;SDS011;7592;51.088;13.732;2023-10-31T22:42:27;1.27;;;0.60;;
14992;SDS011;7592;51.088;13.732;2023-10-31T22:47:21;1.73;;;0.97;;
14992;SDS011;7592;51.088;13.732;2023-10-31T22:52:13;1.13;;;1.03;;
14992;SDS011;7592;51.088;13.732;2023-10-31T22:57:06;1.70;;;0.90;;
14992;SDS011;7592;51.088;13.732;2023-10-31T23:01:58;3.33;;;0.80;;
14992;SDS011;7592;51.088;13.732;2023-10-31T23:06:50;0.73;;;0.70;;
14992;SDS011;7592;51.088;13.732;2023-10-31T23:11:46;1.60;;;0.90;;
14992;SDS011;7592;51.088;13.732;2023-10-31T23:16:38;1.23;;;0.80;;
14992;SDS011;7592;51.088;13.732;2023-10-31T23:21:30;1.13;;;0.67;;
14992;SDS011;7592;51.088;13.732;2023-10-31T23:26:23;3.23;;;1.63;;
14992;SDS011;7592;51.088;13.732;2023-10-31T23:31:15;2.43;;;0.90;;
14992;SDS011;7592;51.088;13.732;2023-10-31T23:36:07;1.97;;;1.10;;
14992;SDS011;7592;51.088;13.732;2023-10-31T23:41:00;2.60;;;1.67;;
14992;SDS011;7592;51.088;13.732;2023-10-31T23:45:52;4.70;;;1.93;;
14992;SDS011;7592;51.088;13.732;2023-10-31T23:50:44;5.13;;;1.80;;
14992;SDS011;7592;51.088;13.732;2023-10-31T23:55:36;2.90;;;1.60;;
